sensor_id;sensor_type;location;lat;lon;timestamp;P1;durP1;ratioP1;P2;durP2;ratioP2
32705;SDS011;19094;50.972;3.538;2022-09-09T00:00:23;14.32;;;1.38;;
32705;SDS011;19094;50.972;3.538;2022-09-09T00:03:05;4.88;;;1.33;;
32705;SDS011;19094;50.972;3.538;2022-09-09T00:08:15;4.38;;;1.05;;
32705;SDS011;19094;50.972;3.538;2022-09-09T00:10:51;7.32;;;1.10;;
32705;SDS011;19094;50.972;3.538;2022-09-09T00:13:45;4.68;;;1.10;;
32705;SDS011;19094;50.972;3.538;2022-09-09T00:16:19;7.53;;;1.02;;
32705;SDS011;19094;50.972;3.538;2022-09-09T00:19:01;8.20;;;1.10;;
32705;SDS011;19094;50.972;3.538;2022-09-09T00:21:37;3.00;;;0.93;;
32705;SDS011;19094;50.972;3.538;2022-09-09T00:27:43;4.70;;;1.20;;
32705;SDS011;19094;50.972;3.538;2022-09-09T00:29:57;4.35;;;1.08;;
32705;SDS011;19094;50.972;3.538;2022-09-09T00:32:30;4.20;;;0.90;;
32705;SDS011;19094;50.972;3.538;2022-09-09T00:35:02;2.90;;;1.00;;
32705;SDS011;19094;50.972;3.538;2022-09-09T00:37:37;5.70;;;0.90;;
32705;SDS011;19094;50.972;3.538;2022-09-09T00:40:07;3.78;;;1.23;;
32705;SDS011;19094;50.972;3.538;2022-09-09T00:42:46;4.50;;;0.98;;
32705;SDS011;19094;50.972;3.538;2022-09-09T00:58:31;5.22;;;0.95;;
32705;SDS011;19094;50.972;3.538;2022-09-09T01:12:12;12.30;;;1.20;;
32705;SDS011;19094;50.972;3.538;2022-09-09T01:14:44;2.25;;;0.90;;
32705;SDS011;19094;50.972;3.538;2022-09-09T01:17:14;6.60;;;1.17;;
32705;SDS011;19094;50.972;3.538;2022-09-09T01:19:49;3.15;;;0.90;;
32705;SDS011;19094;50.972;3.538;2022-09-09T01:27:46;7.22;;;1.42;;
32705;SDS011;19094;50.972;3.538;2022-09-09T01:30:16;1.80;;;0.98;;
32705;SDS011;19094;50.972;3.538;2022-09-09T01:32:44;9.75;;;1.23;;
32705;SDS011;19094;50.972;3.538;2022-09-09T01:35:23;3.38;;;1.00;;
32705;SDS011;19094;50.972;3.538;2022-09-09T01:38:11;6.93;;;1.60;;
32705;SDS011;19094;50.972;3.538;2022-09-09T01:40:37;7.05;;;1.50;;
32705;SDS011;19094;50.972;3.538;2022-09-09T01:43:04;8.70;;;1.88;;
32705;SDS011;19094;50.972;3.538;2022-09-09T01:45:31;9.13;;;1.40;;
32705;SDS011;19094;50.972;3.538;2022-09-09T01:47:57;3.90;;;1.25;;
32705;SDS011;19094;50.972;3.538;2022-09-09T01:50:24;7.13;;;1.50;;
32705;SDS011;19094;50.972;3.538;2022-09-09T01:52:51;6.60;;;1.50;;
32705;SDS011;19094;50.972;3.538;2022-09-09T01:55:27;6.28;;;1.27;;
32705;SDS011;19094;50.972;3.538;2022-09-09T01:58:16;6.53;;;1.20;;
32705;SDS011;19094;50.972;3.538;2022-09-09T02:01:18;7.70;;;1.40;;
32705;SDS011;19094;50.972;3.538;2022-09-09T02:07:19;8.35;;;1.60;;
32705;SDS011;19094;50.972;3.538;2022-09-09T02:09:57;10.10;;;1.80;;
32705;SDS011;19094;50.972;3.538;2022-09-09T02:12:30;6.60;;;1.67;;
32705;SDS011;19094;50.972;3.538;2022-09-09T02:15:00;10.45;;;2.00;;
32705;SDS011;19094;50.972;3.538;2022-09-09T02:17:31;12.05;;;2.15;;
32705;SDS011;19094;50.972;3.538;2022-09-09T02:20:07;7.47;;;1.75;;
32705;SDS011;19094;50.972;3.538;2022-09-09T02:22:39;10.55;;;1.65;;
32705;SDS011;19094;50.972;3.538;2022-09-09T02:25:09;8.07;;;1.77;;
32705;SDS011;19094;50.972;3.538;2022-09-09T02:27:39;8.35;;;1.52;;
32705;SDS011;19094;50.972;3.538;2022-09-09T02:30:08;11.40;;;1.92;;
32705;SDS011;19094;50.972;3.538;2022-09-09T02:32:35;3.85;;;1.20;;
32705;SDS011;19094;50.972;3.538;2022-09-09T02:35:03;11.18;;;1.85;;
32705;SDS011;19094;50.972;3.538;2022-09-09T02:37:38;12.23;;;2.60;;
32705;SDS011;19094;50.972;3.538;2022-09-09T02:40:06;6.55;;;1.42;;
32705;SDS011;19094;50.972;3.538;2022-09-09T02:42:42;7.40;;;1.80;;
32705;SDS011;19094;50.972;3.538;2022-09-09T02:45:10;12.05;;;1.67;;
32705;SDS011;19094;50.972;3.538;2022-09-09T02:47:41;12.38;;;1.65;;
32705;SDS011;19094;50.972;3.538;2022-09-09T02:50:13;9.65;;;1.73;;
32705;SDS011;19094;50.972;3.538;2022-09-09T02:58:10;8.48;;;1.85;;
32705;SDS011;19094;50.972;3.538;2022-09-09T03:00:41;13.23;;;2.05;;
32705;SDS011;19094;50.972;3.538;2022-09-09T03:03:08;12.50;;;2.10;;
32705;SDS011;19094;50.972;3.538;2022-09-09T03:05:34;14.50;;;2.92;;
32705;SDS011;19094;50.972;3.538;2022-09-09T03:08:00;10.88;;;1.45;;
32705;SDS011;19094;50.972;3.538;2022-09-09T03:10:27;12.45;;;1.77;;
32705;SDS011;19094;50.972;3.538;2022-09-09T03:12:53;13.25;;;1.85;;
32705;SDS011;19094;50.972;3.538;2022-09-09T03:15:18;7.97;;;1.60;;
32705;SDS011;19094;50.972;3.538;2022-09-09T03:17:44;9.18;;;1.70;;
32705;SDS011;19094;50.972;3.538;2022-09-09T03:20:10;11.57;;;2.03;;
32705;SDS011;19094;50.972;3.538;2022-09-09T03:22:35;7.35;;;2.05;;
32705;SDS011;19094;50.972;3.538;2022-09-09T03:25:02;11.30;;;2.30;;
32705;SDS011;19094;50.972;3.538;2022-09-09T03:27:28;10.60;;;2.22;;
32705;SDS011;19094;50.972;3.538;2022-09-09T03:29:54;7.45;;;1.77;;
32705;SDS011;19094;50.972;3.538;2022-09-09T03:32:20;8.57;;;1.77;;
32705;SDS011;19094;50.972;3.538;2022-09-09T03:34:47;10.30;;;2.03;;
32705;SDS011;19094;50.972;3.538;2022-09-09T03:37:15;11.75;;;1.98;;
32705;SDS011;19094;50.972;3.538;2022-09-09T03:39:41;11.88;;;1.90;;
32705;SDS011;19094;50.972;3.538;2022-09-09T03:42:06;10.45;;;2.15;;
32705;SDS011;19094;50.972;3.538;2022-09-09T03:44:32;14.48;;;2.33;;
32705;SDS011;19094;50.972;3.538;2022-09-09T03:46:58;11.07;;;2.03;;
32705;SDS011;19094;50.972;3.538;2022-09-09T03:49:25;11.02;;;2.47;;
32705;SDS011;19094;50.972;3.538;2022-09-09T03:51:53;10.75;;;2.42;;
32705;SDS011;19094;50.972;3.538;2022-09-09T03:54:21;9.07;;;2.42;;
32705;SDS011;19094;50.972;3.538;2022-09-09T03:56:47;12.52;;;2.00;;
32705;SDS011;19094;50.972;3.538;2022-09-09T03:59:13;9.00;;;1.63;;
32705;SDS011;19094;50.972;3.538;2022-09-09T04:01:39;9.85;;;1.73;;
32705;SDS011;19094;50.972;3.538;2022-09-09T04:04:05;9.88;;;1.80;;
32705;SDS011;19094;50.972;3.538;2022-09-09T04:06:30;12.65;;;2.38;;
32705;SDS011;19094;50.972;3.538;2022-09-09T04:08:56;8.63;;;2.05;;
32705;SDS011;19094;50.972;3.538;2022-09-09T04:11:22;7.78;;;1.70;;
32705;SDS011;19094;50.972;3.538;2022-09-09T04:13:48;24.25;;;2.67;;
32705;SDS011;19094;50.972;3.538;2022-09-09T04:16:14;13.52;;;2.15;;
32705;SDS011;19094;50.972;3.538;2022-09-09T04:18:40;7.47;;;1.60;;
32705;SDS011;19094;50.972;3.538;2022-09-09T04:21:06;20.55;;;3.20;;
32705;SDS011;19094;50.972;3.538;2022-09-09T04:23:33;12.00;;;2.15;;
32705;SDS011;19094;50.972;3.538;2022-09-09T04:25:59;8.75;;;1.67;;
32705;SDS011;19094;50.972;3.538;2022-09-09T04:28:30;12.88;;;2.60;;
32705;SDS011;19094;50.972;3.538;2022-09-09T04:30:57;12.57;;;2.20;;
32705;SDS011;19094;50.972;3.538;2022-09-09T04:33:30;14.57;;;2.92;;
32705;SDS011;19094;50.972;3.538;2022-09-09T04:35:56;10.43;;;1.95;;
32705;SDS011;19094;50.972;3.538;2022-09-09T04:38:22;10.48;;;2.22;;
32705;SDS011;19094;50.972;3.538;2022-09-09T04:40:48;11.73;;;2.42;;
32705;SDS011;19094;50.972;3.538;2022-09-09T04:43:16;12.35;;;2.38;;
32705;SDS011;19094;50.972;3.538;2022-09-09T04:45:44;14.82;;;2.50;;
32705;SDS011;19094;50.972;3.538;2022-09-09T04:48:12;9.90;;;2.33;;
32705;SDS011;19094;50.972;3.538;2022-09-09T04:50:38;16.20;;;2.42;;
32705;SDS011;19094;50.972;3.538;2022-09-09T04:53:05;9.27;;;2.50;;
32705;SDS011;19094;50.972;3.538;2022-09-09T04:55:32;16.92;;;2.85;;
32705;SDS011;19094;50.972;3.538;2022-09-09T04:58:06;9.57;;;1.83;;
32705;SDS011;19094;50.972;3.538;2022-09-09T05:00:32;9.48;;;2.22;;
32705;SDS011;19094;50.972;3.538;2022-09-09T05:03:04;5.88;;;2.10;;
32705;SDS011;19094;50.972;3.538;2022-09-09T05:05:30;12.05;;;2.55;;
32705;SDS011;19094;50.972;3.538;2022-09-09T05:08:02;11.48;;;2.45;;
32705;SDS011;19094;50.972;3.538;2022-09-09T05:10:30;10.13;;;2.05;;
32705;SDS011;19094;50.972;3.538;2022-09-09T05:12:55;17.27;;;2.20;;
32705;SDS011;19094;50.972;3.538;2022-09-09T05:15:22;16.65;;;2.80;;
32705;SDS011;19094;50.972;3.538;2022-09-09T05:17:48;11.82;;;2.47;;
32705;SDS011;19094;50.972;3.538;2022-09-09T05:20:13;13.18;;;3.63;;
32705;SDS011;19094;50.972;3.538;2022-09-09T05:22:39;12.68;;;3.35;;
32705;SDS011;19094;50.972;3.538;2022-09-09T05:25:05;9.45;;;2.58;;
32705;SDS011;19094;50.972;3.538;2022-09-09T05:27:33;9.90;;;2.58;;
32705;SDS011;19094;50.972;3.538;2022-09-09T05:29:59;13.98;;;2.20;;
32705;SDS011;19094;50.972;3.538;2022-09-09T05:32:25;9.02;;;1.80;;
32705;SDS011;19094;50.972;3.538;2022-09-09T05:34:51;14.13;;;2.10;;
32705;SDS011;19094;50.972;3.538;2022-09-09T05:37:17;14.50;;;2.55;;
32705;SDS011;19094;50.972;3.538;2022-09-09T05:39:43;13.77;;;2.95;;
32705;SDS011;19094;50.972;3.538;2022-09-09T05:42:09;12.75;;;2.75;;
32705;SDS011;19094;50.972;3.538;2022-09-09T05:44:35;12.98;;;2.38;;
32705;SDS011;19094;50.972;3.538;2022-09-09T05:47:00;13.10;;;2.38;;
32705;SDS011;19094;50.972;3.538;2022-09-09T05:49:26;16.20;;;2.38;;
32705;SDS011;19094;50.972;3.538;2022-09-09T05:51:52;16.45;;;2.55;;
32705;SDS011;19094;50.972;3.538;2022-09-09T05:54:18;11.93;;;2.22;;
32705;SDS011;19094;50.972;3.538;2022-09-09T05:56:43;13.68;;;2.90;;
32705;SDS011;19094;50.972;3.538;2022-09-09T05:59:09;14.20;;;2.70;;
32705;SDS011;19094;50.972;3.538;2022-09-09T06:01:36;15.90;;;2.67;;
32705;SDS011;19094;50.972;3.538;2022-09-09T06:04:05;12.98;;;2.72;;
32705;SDS011;19094;50.972;3.538;2022-09-09T06:06:35;22.95;;;3.00;;
32705;SDS011;19094;50.972;3.538;2022-09-09T06:09:05;17.27;;;2.53;;
32705;SDS011;19094;50.972;3.538;2022-09-09T06:11:34;12.35;;;2.45;;
32705;SDS011;19094;50.972;3.538;2022-09-09T06:14:01;14.27;;;2.40;;
32705;SDS011;19094;50.972;3.538;2022-09-09T06:16:28;11.20;;;2.53;;
32705;SDS011;19094;50.972;3.538;2022-09-09T06:18:54;11.32;;;2.60;;
32705;SDS011;19094;50.972;3.538;2022-09-09T06:21:34;14.55;;;2.30;;
32705;SDS011;19094;50.972;3.538;2022-09-09T06:24:02;13.18;;;3.13;;
32705;SDS011;19094;50.972;3.538;2022-09-09T06:26:32;7.82;;;2.03;;
32705;SDS011;19094;50.972;3.538;2022-09-09T06:28:59;8.88;;;2.45;;
32705;SDS011;19094;50.972;3.538;2022-09-09T06:31:28;13.13;;;2.22;;
32705;SDS011;19094;50.972;3.538;2022-09-09T06:33:55;13.82;;;2.92;;
32705;SDS011;19094;50.972;3.538;2022-09-09T06:36:23;8.60;;;2.10;;
32705;SDS011;19094;50.972;3.538;2022-09-09T06:38:54;14.32;;;2.22;;
32705;SDS011;19094;50.972;3.538;2022-09-09T06:41:20;12.73;;;2.53;;
32705;SDS011;19094;50.972;3.538;2022-09-09T06:43:47;8.65;;;2.50;;
32705;SDS011;19094;50.972;3.538;2022-09-09T06:48:41;13.45;;;2.40;;
32705;SDS011;19094;50.972;3.538;2022-09-09T06:51:10;8.23;;;2.38;;
32705;SDS011;19094;50.972;3.538;2022-09-09T06:53:37;13.95;;;2.33;;
32705;SDS011;19094;50.972;3.538;2022-09-09T06:58:44;10.55;;;2.28;;
32705;SDS011;19094;50.972;3.538;2022-09-09T07:01:11;9.13;;;2.08;;
32705;SDS011;19094;50.972;3.538;2022-09-09T07:03:39;12.95;;;3.63;;
32705;SDS011;19094;50.972;3.538;2022-09-09T07:06:06;11.10;;;2.35;;
32705;SDS011;19094;50.972;3.538;2022-09-09T07:08:38;13.60;;;2.40;;
32705;SDS011;19094;50.972;3.538;2022-09-09T07:11:05;15.25;;;2.50;;
32705;SDS011;19094;50.972;3.538;2022-09-09T07:13:33;13.90;;;2.72;;
32705;SDS011;19094;50.972;3.538;2022-09-09T07:16:03;8.07;;;2.45;;
32705;SDS011;19094;50.972;3.538;2022-09-09T07:18:36;10.70;;;2.05;;
32705;SDS011;19094;50.972;3.538;2022-09-09T07:21:02;12.15;;;2.40;;
32705;SDS011;19094;50.972;3.538;2022-09-09T07:23:29;12.15;;;2.45;;
32705;SDS011;19094;50.972;3.538;2022-09-09T07:25:55;11.20;;;1.95;;
32705;SDS011;19094;50.972;3.538;2022-09-09T07:28:22;7.45;;;2.30;;
32705;SDS011;19094;50.972;3.538;2022-09-09T07:30:55;10.93;;;2.97;;
32705;SDS011;19094;50.972;3.538;2022-09-09T07:33:23;17.63;;;3.20;;
32705;SDS011;19094;50.972;3.538;2022-09-09T07:35:49;13.95;;;2.67;;
32705;SDS011;19094;50.972;3.538;2022-09-09T07:38:16;14.55;;;2.63;;
32705;SDS011;19094;50.972;3.538;2022-09-09T07:40:42;14.45;;;2.88;;
32705;SDS011;19094;50.972;3.538;2022-09-09T07:43:08;13.77;;;2.40;;
32705;SDS011;19094;50.972;3.538;2022-09-09T07:45:34;8.63;;;1.92;;
32705;SDS011;19094;50.972;3.538;2022-09-09T07:48:00;7.97;;;2.28;;
32705;SDS011;19094;50.972;3.538;2022-09-09T07:50:26;11.50;;;2.65;;
32705;SDS011;19094;50.972;3.538;2022-09-09T07:52:52;9.13;;;2.55;;
32705;SDS011;19094;50.972;3.538;2022-09-09T07:55:22;13.20;;;2.40;;
32705;SDS011;19094;50.972;3.538;2022-09-09T07:57:52;9.18;;;1.88;;
32705;SDS011;19094;50.972;3.538;2022-09-09T08:00:18;11.85;;;2.40;;
32705;SDS011;19094;50.972;3.538;2022-09-09T08:02:47;11.05;;;2.28;;
32705;SDS011;19094;50.972;3.538;2022-09-09T08:05:13;8.93;;;2.30;;
32705;SDS011;19094;50.972;3.538;2022-09-09T08:07:40;11.18;;;2.25;;
32705;SDS011;19094;50.972;3.538;2022-09-09T08:10:05;8.32;;;1.98;;
32705;SDS011;19094;50.972;3.538;2022-09-09T08:12:31;8.93;;;2.20;;
32705;SDS011;19094;50.972;3.538;2022-09-09T08:14:57;8.60;;;1.90;;
32705;SDS011;19094;50.972;3.538;2022-09-09T08:17:23;9.48;;;1.85;;
32705;SDS011;19094;50.972;3.538;2022-09-09T08:19:49;11.70;;;2.10;;
32705;SDS011;19094;50.972;3.538;2022-09-09T08:22:14;9.20;;;2.15;;
32705;SDS011;19094;50.972;3.538;2022-09-09T08:24:40;6.72;;;2.15;;
32705;SDS011;19094;50.972;3.538;2022-09-09T08:27:06;9.27;;;2.17;;
32705;SDS011;19094;50.972;3.538;2022-09-09T08:29:31;6.68;;;1.85;;
32705;SDS011;19094;50.972;3.538;2022-09-09T08:31:58;7.47;;;1.65;;
32705;SDS011;19094;50.972;3.538;2022-09-09T08:34:24;10.45;;;2.20;;
32705;SDS011;19094;50.972;3.538;2022-09-09T08:36:52;9.00;;;2.10;;
32705;SDS011;19094;50.972;3.538;2022-09-09T08:39:19;11.40;;;2.00;;
32705;SDS011;19094;50.972;3.538;2022-09-09T08:47:40;9.00;;;1.80;;
32705;SDS011;19094;50.972;3.538;2022-09-09T08:50:25;8.98;;;1.98;;
32705;SDS011;19094;50.972;3.538;2022-09-09T08:57:46;8.85;;;2.10;;
32705;SDS011;19094;50.972;3.538;2022-09-09T09:00:14;9.80;;;2.25;;
32705;SDS011;19094;50.972;3.538;2022-09-09T09:03:00;10.27;;;2.10;;
32705;SDS011;19094;50.972;3.538;2022-09-09T09:05:47;13.65;;;2.67;;
32705;SDS011;19094;50.972;3.538;2022-09-09T09:10:54;11.10;;;2.13;;
32705;SDS011;19094;50.972;3.538;2022-09-09T09:18:57;7.65;;;1.80;;
32705;SDS011;19094;50.972;3.538;2022-09-09T09:21:35;4.47;;;1.52;;
32705;SDS011;19094;50.972;3.538;2022-09-09T09:26:44;13.98;;;2.25;;
32705;SDS011;19094;50.972;3.538;2022-09-09T09:29:12;5.30;;;1.73;;
32705;SDS011;19094;50.972;3.538;2022-09-09T09:31:42;5.95;;;1.58;;
32705;SDS011;19094;50.972;3.538;2022-09-09T09:34:14;6.35;;;1.90;;
32705;SDS011;19094;50.972;3.538;2022-09-09T09:36:41;6.28;;;2.03;;
32705;SDS011;19094;50.972;3.538;2022-09-09T09:39:22;10.73;;;2.22;;
32705;SDS011;19094;50.972;3.538;2022-09-09T09:41:49;8.02;;;1.70;;
32705;SDS011;19094;50.972;3.538;2022-09-09T09:44:26;9.65;;;1.95;;
32705;SDS011;19094;50.972;3.538;2022-09-09T09:47:04;11.45;;;2.08;;
32705;SDS011;19094;50.972;3.538;2022-09-09T09:49:56;5.07;;;1.88;;
32705;SDS011;19094;50.972;3.538;2022-09-09T09:52:28;4.53;;;1.30;;
32705;SDS011;19094;50.972;3.538;2022-09-09T09:54:55;4.15;;;1.52;;
32705;SDS011;19094;50.972;3.538;2022-09-09T09:57:26;7.05;;;2.25;;
32705;SDS011;19094;50.972;3.538;2022-09-09T10:02:42;5.85;;;2.08;;
32705;SDS011;19094;50.972;3.538;2022-09-09T10:05:28;5.20;;;1.33;;
32705;SDS011;19094;50.972;3.538;2022-09-09T10:08:08;3.08;;;1.42;;
32705;SDS011;19094;50.972;3.538;2022-09-09T10:19:19;4.50;;;1.30;;
32705;SDS011;19094;50.972;3.538;2022-09-09T10:35:19;9.20;;;1.60;;
32705;SDS011;19094;50.972;3.538;2022-09-09T10:38:08;6.30;;;1.52;;
32705;SDS011;19094;50.972;3.538;2022-09-09T10:46:27;9.82;;;1.92;;
32705;SDS011;19094;50.972;3.538;2022-09-09T10:51:50;9.93;;;1.50;;
32705;SDS011;19094;50.972;3.538;2022-09-09T10:57:38;5.57;;;1.63;;
32705;SDS011;19094;50.972;3.538;2022-09-09T11:00:13;8.85;;;1.95;;
32705;SDS011;19094;50.972;3.538;2022-09-09T11:02:56;6.10;;;1.52;;
32705;SDS011;19094;50.972;3.538;2022-09-09T11:08:12;3.53;;;1.08;;
32705;SDS011;19094;50.972;3.538;2022-09-09T11:11:04;6.70;;;1.50;;
32705;SDS011;19094;50.972;3.538;2022-09-09T11:13:38;4.80;;;1.58;;
32705;SDS011;19094;50.972;3.538;2022-09-09T11:18:48;6.75;;;2.15;;
32705;SDS011;19094;50.972;3.538;2022-09-09T11:21:25;8.00;;;1.30;;
32705;SDS011;19094;50.972;3.538;2022-09-09T11:24:04;5.05;;;1.75;;
32705;SDS011;19094;50.972;3.538;2022-09-09T11:26:41;3.63;;;1.30;;
32705;SDS011;19094;50.972;3.538;2022-09-09T11:35:11;4.25;;;1.13;;
32705;SDS011;19094;50.972;3.538;2022-09-09T11:38:11;2.45;;;0.90;;
32705;SDS011;19094;50.972;3.538;2022-09-09T11:40:46;4.55;;;1.10;;
32705;SDS011;19094;50.972;3.538;2022-09-09T11:43:24;4.60;;;1.25;;
32705;SDS011;19094;50.972;3.538;2022-09-09T11:45:50;4.35;;;1.10;;
32705;SDS011;19094;50.972;3.538;2022-09-09T11:48:32;5.60;;;1.27;;
32705;SDS011;19094;50.972;3.538;2022-09-09T11:51:11;3.63;;;1.30;;
32705;SDS011;19094;50.972;3.538;2022-09-09T11:54:00;7.63;;;1.25;;
32705;SDS011;19094;50.972;3.538;2022-09-09T11:56:46;8.05;;;1.48;;
32705;SDS011;19094;50.972;3.538;2022-09-09T11:59:22;3.72;;;1.23;;
32705;SDS011;19094;50.972;3.538;2022-09-09T12:01:59;6.15;;;1.10;;
32705;SDS011;19094;50.972;3.538;2022-09-09T12:04:40;3.67;;;1.52;;
32705;SDS011;19094;50.972;3.538;2022-09-09T12:07:26;3.70;;;1.43;;
32705;SDS011;19094;50.972;3.538;2022-09-09T12:10:20;1.92;;;1.10;;
32705;SDS011;19094;50.972;3.538;2022-09-09T12:12:52;6.38;;;1.33;;
32705;SDS011;19094;50.972;3.538;2022-09-09T12:17:54;3.50;;;1.17;;
32705;SDS011;19094;50.972;3.538;2022-09-09T12:34:02;2.33;;;1.38;;
32705;SDS011;19094;50.972;3.538;2022-09-09T12:36:49;6.22;;;1.50;;
32705;SDS011;19094;50.972;3.538;2022-09-09T12:39:58;3.30;;;1.55;;
32705;SDS011;19094;50.972;3.538;2022-09-09T12:42:21;5.95;;;1.23;;
32705;SDS011;19094;50.972;3.538;2022-09-09T12:44:55;4.10;;;1.42;;
32705;SDS011;19094;50.972;3.538;2022-09-09T12:47:22;5.88;;;1.65;;
32705;SDS011;19094;50.972;3.538;2022-09-09T12:49:58;4.55;;;1.60;;
32705;SDS011;19094;50.972;3.538;2022-09-09T12:54:57;4.35;;;1.38;;
32705;SDS011;19094;50.972;3.538;2022-09-09T12:57:25;3.53;;;1.35;;
32705;SDS011;19094;50.972;3.538;2022-09-09T13:02:30;3.95;;;1.60;;
32705;SDS011;19094;50.972;3.538;2022-09-09T13:05:05;7.72;;;1.40;;
32705;SDS011;19094;50.972;3.538;2022-09-09T13:07:37;3.78;;;1.58;;
32705;SDS011;19094;50.972;3.538;2022-09-09T13:10:03;5.68;;;1.33;;
32705;SDS011;19094;50.972;3.538;2022-09-09T13:12:29;8.55;;;2.20;;
32705;SDS011;19094;50.972;3.538;2022-09-09T13:14:55;4.22;;;1.75;;
32705;SDS011;19094;50.972;3.538;2022-09-09T13:17:23;5.18;;;1.52;;
32705;SDS011;19094;50.972;3.538;2022-09-09T13:19:51;7.20;;;1.52;;
32705;SDS011;19094;50.972;3.538;2022-09-09T13:22:22;3.67;;;1.30;;
32705;SDS011;19094;50.972;3.538;2022-09-09T13:24:59;8.52;;;1.95;;
32705;SDS011;19094;50.972;3.538;2022-09-09T13:27:36;2.75;;;1.30;;
32705;SDS011;19094;50.972;3.538;2022-09-09T13:33:05;1.50;;;1.05;;
32705;SDS011;19094;50.972;3.538;2022-09-09T13:35:55;5.17;;;1.97;;
32705;SDS011;19094;50.972;3.538;2022-09-09T13:38:22;4.38;;;2.15;;
32705;SDS011;19094;50.972;3.538;2022-09-09T13:41:05;5.30;;;2.00;;
32705;SDS011;19094;50.972;3.538;2022-09-09T13:43:53;4.78;;;1.45;;
32705;SDS011;19094;50.972;3.538;2022-09-09T13:54:03;12.75;;;2.65;;
32705;SDS011;19094;50.972;3.538;2022-09-09T13:56:31;6.78;;;2.28;;
32705;SDS011;19094;50.972;3.538;2022-09-09T13:59:00;7.05;;;1.50;;
32705;SDS011;19094;50.972;3.538;2022-09-09T14:01:26;7.20;;;1.80;;
32705;SDS011;19094;50.972;3.538;2022-09-09T14:03:52;11.90;;;2.72;;
32705;SDS011;19094;50.972;3.538;2022-09-09T14:06:18;9.27;;;2.40;;
32705;SDS011;19094;50.972;3.538;2022-09-09T14:08:46;5.03;;;1.35;;
32705;SDS011;19094;50.972;3.538;2022-09-09T14:11:13;6.13;;;1.75;;
32705;SDS011;19094;50.972;3.538;2022-09-09T14:13:39;6.15;;;1.38;;
32705;SDS011;19094;50.972;3.538;2022-09-09T14:16:05;4.10;;;1.92;;
32705;SDS011;19094;50.972;3.538;2022-09-09T14:18:31;7.20;;;2.38;;
32705;SDS011;19094;50.972;3.538;2022-09-09T14:20:57;6.30;;;2.80;;
32705;SDS011;19094;50.972;3.538;2022-09-09T14:23:23;4.55;;;2.22;;
32705;SDS011;19094;50.972;3.538;2022-09-09T14:25:49;5.50;;;1.98;;
32705;SDS011;19094;50.972;3.538;2022-09-09T14:28:16;6.13;;;2.17;;
32705;SDS011;19094;50.972;3.538;2022-09-09T14:30:42;4.03;;;1.88;;
32705;SDS011;19094;50.972;3.538;2022-09-09T14:33:12;3.47;;;1.48;;
32705;SDS011;19094;50.972;3.538;2022-09-09T14:35:39;8.13;;;2.25;;
32705;SDS011;19094;50.972;3.538;2022-09-09T14:38:06;3.65;;;2.10;;
32705;SDS011;19094;50.972;3.538;2022-09-09T14:40:33;3.28;;;1.80;;
32705;SDS011;19094;50.972;3.538;2022-09-09T14:43:00;8.95;;;1.70;;
32705;SDS011;19094;50.972;3.538;2022-09-09T14:45:27;4.05;;;1.42;;
32705;SDS011;19094;50.972;3.538;2022-09-09T14:47:53;7.95;;;1.55;;
32705;SDS011;19094;50.972;3.538;2022-09-09T14:50:20;3.70;;;1.38;;
32705;SDS011;19094;50.972;3.538;2022-09-09T14:52:46;6.47;;;1.38;;
32705;SDS011;19094;50.972;3.538;2022-09-09T14:55:13;3.65;;;1.00;;
32705;SDS011;19094;50.972;3.538;2022-09-09T14:57:41;7.32;;;1.42;;
32705;SDS011;19094;50.972;3.538;2022-09-09T15:00:07;4.10;;;1.23;;
32705;SDS011;19094;50.972;3.538;2022-09-09T15:02:34;7.68;;;1.50;;
32705;SDS011;19094;50.972;3.538;2022-09-09T15:05:00;4.55;;;1.35;;
32705;SDS011;19094;50.972;3.538;2022-09-09T15:07:26;4.93;;;1.27;;
32705;SDS011;19094;50.972;3.538;2022-09-09T15:09:53;2.95;;;1.52;;
32705;SDS011;19094;50.972;3.538;2022-09-09T15:12:19;2.90;;;1.20;;
32705;SDS011;19094;50.972;3.538;2022-09-09T15:14:45;10.75;;;1.83;;
32705;SDS011;19094;50.972;3.538;2022-09-09T15:17:12;3.67;;;1.60;;
32705;SDS011;19094;50.972;3.538;2022-09-09T15:19:38;4.40;;;1.20;;
32705;SDS011;19094;50.972;3.538;2022-09-09T15:22:06;6.20;;;1.52;;
32705;SDS011;19094;50.972;3.538;2022-09-09T15:24:32;2.22;;;1.15;;
32705;SDS011;19094;50.972;3.538;2022-09-09T15:26:58;5.82;;;1.25;;
32705;SDS011;19094;50.972;3.538;2022-09-09T15:29:24;4.18;;;1.50;;
32705;SDS011;19094;50.972;3.538;2022-09-09T15:31:50;6.82;;;1.70;;
32705;SDS011;19094;50.972;3.538;2022-09-09T15:34:18;7.38;;;1.40;;
32705;SDS011;19094;50.972;3.538;2022-09-09T15:36:44;6.18;;;2.15;;
32705;SDS011;19094;50.972;3.538;2022-09-09T15:39:11;7.05;;;2.05;;
32705;SDS011;19094;50.972;3.538;2022-09-09T15:41:40;5.45;;;1.50;;
32705;SDS011;19094;50.972;3.538;2022-09-09T15:44:07;7.28;;;2.08;;
32705;SDS011;19094;50.972;3.538;2022-09-09T15:46:39;6.13;;;1.60;;
32705;SDS011;19094;50.972;3.538;2022-09-09T15:51:51;7.40;;;2.08;;
32705;SDS011;19094;50.972;3.538;2022-09-09T15:54:19;3.78;;;1.80;;
32705;SDS011;19094;50.972;3.538;2022-09-09T15:56:50;3.70;;;1.95;;
32705;SDS011;19094;50.972;3.538;2022-09-09T15:59:21;3.58;;;1.92;;
32705;SDS011;19094;50.972;3.538;2022-09-09T16:01:50;8.43;;;2.13;;
32705;SDS011;19094;50.972;3.538;2022-09-09T16:04:19;6.38;;;1.88;;
32705;SDS011;19094;50.972;3.538;2022-09-09T16:06:52;4.70;;;2.15;;
32705;SDS011;19094;50.972;3.538;2022-09-09T16:09:20;6.47;;;1.98;;
32705;SDS011;19094;50.972;3.538;2022-09-09T16:11:46;6.20;;;2.30;;
32705;SDS011;19094;50.972;3.538;2022-09-09T16:14:12;8.48;;;2.60;;
32705;SDS011;19094;50.972;3.538;2022-09-09T16:16:40;4.57;;;1.77;;
32705;SDS011;19094;50.972;3.538;2022-09-09T16:19:07;8.25;;;2.25;;
32705;SDS011;19094;50.972;3.538;2022-09-09T16:21:36;3.72;;;1.85;;
32705;SDS011;19094;50.972;3.538;2022-09-09T16:24:05;4.80;;;2.33;;
32705;SDS011;19094;50.972;3.538;2022-09-09T16:26:32;5.32;;;2.22;;
32705;SDS011;19094;50.972;3.538;2022-09-09T16:29:00;6.57;;;2.35;;
32705;SDS011;19094;50.972;3.538;2022-09-09T16:31:28;6.18;;;2.13;;
32705;SDS011;19094;50.972;3.538;2022-09-09T16:33:54;11.00;;;2.47;;
32705;SDS011;19094;50.972;3.538;2022-09-09T16:36:21;6.80;;;2.28;;
32705;SDS011;19094;50.972;3.538;2022-09-09T16:38:52;6.63;;;2.22;;
32705;SDS011;19094;50.972;3.538;2022-09-09T16:41:22;6.60;;;2.38;;
32705;SDS011;19094;50.972;3.538;2022-09-09T16:43:59;7.32;;;2.15;;
32705;SDS011;19094;50.972;3.538;2022-09-09T16:46:27;9.88;;;2.50;;
32705;SDS011;19094;50.972;3.538;2022-09-09T16:48:55;6.90;;;2.25;;
32705;SDS011;19094;50.972;3.538;2022-09-09T16:51:26;9.35;;;2.35;;
32705;SDS011;19094;50.972;3.538;2022-09-09T16:53:54;3.72;;;1.75;;
32705;SDS011;19094;50.972;3.538;2022-09-09T16:56:24;10.77;;;2.58;;
32705;SDS011;19094;50.972;3.538;2022-09-09T16:58:56;8.55;;;2.05;;
32705;SDS011;19094;50.972;3.538;2022-09-09T17:01:23;8.13;;;1.63;;
32705;SDS011;19094;50.972;3.538;2022-09-09T17:03:55;8.48;;;1.63;;
32705;SDS011;19094;50.972;3.538;2022-09-09T17:06:22;12.10;;;1.60;;
32705;SDS011;19094;50.972;3.538;2022-09-09T17:08:53;5.63;;;1.60;;
32705;SDS011;19094;50.972;3.538;2022-09-09T17:11:20;7.85;;;1.98;;
32705;SDS011;19094;50.972;3.538;2022-09-09T17:13:46;9.65;;;1.58;;
32705;SDS011;19094;50.972;3.538;2022-09-09T17:16:13;7.45;;;1.45;;
32705;SDS011;19094;50.972;3.538;2022-09-09T17:18:41;5.55;;;1.55;;
32705;SDS011;19094;50.972;3.538;2022-09-09T17:21:08;11.35;;;2.97;;
32705;SDS011;19094;50.972;3.538;2022-09-09T17:23:38;8.82;;;1.60;;
32705;SDS011;19094;50.972;3.538;2022-09-09T17:26:04;7.93;;;2.08;;
32705;SDS011;19094;50.972;3.538;2022-09-09T17:28:32;7.68;;;2.05;;
32705;SDS011;19094;50.972;3.538;2022-09-09T17:30:59;8.23;;;2.13;;
32705;SDS011;19094;50.972;3.538;2022-09-09T17:33:29;7.85;;;2.20;;